sensor_id;sensor_type;location;lat;lon;timestamp;P1;durP1;ratioP1;P2;durP2;ratioP2
47365;SDS011;33105;47.964;7.982;2022-08-19T00:00:31;19.30;;;14.55;;
47365;SDS011;33105;47.964;7.982;2022-08-19T00:03:33;17.90;;;15.45;;
47365;SDS011;33105;47.964;7.982;2022-08-19T00:06:45;16.83;;;15.00;;
47365;SDS011;33105;47.964;7.982;2022-08-19T00:09:48;17.88;;;15.60;;
47365;SDS011;33105;47.964;7.982;2022-08-19T00:12:50;18.52;;;15.73;;
47365;SDS011;33105;47.964;7.982;2022-08-19T00:16:35;20.38;;;15.90;;
47365;SDS011;33105;47.964;7.982;2022-08-19T00:19:50;20.58;;;17.45;;
47365;SDS011;33105;47.964;7.982;2022-08-19T00:22:58;22.02;;;16.83;;
47365;SDS011;33105;47.964;7.982;2022-08-19T00:26:05;21.45;;;17.40;;
47365;SDS011;33105;47.964;7.982;2022-08-19T00:29:09;19.58;;;17.05;;
47365;SDS011;33105;47.964;7.982;2022-08-19T00:32:12;19.45;;;16.55;;
47365;SDS011;33105;47.964;7.982;2022-08-19T00:35:14;24.65;;;18.23;;
47365;SDS011;33105;47.964;7.982;2022-08-19T00:38:19;21.23;;;17.52;;
47365;SDS011;33105;47.964;7.982;2022-08-19T00:41:23;21.25;;;17.48;;
47365;SDS011;33105;47.964;7.982;2022-08-19T00:44:27;19.00;;;17.00;;
47365;SDS011;33105;47.964;7.982;2022-08-19T00:47:29;21.30;;;18.10;;
47365;SDS011;33105;47.964;7.982;2022-08-19T00:50:40;27.38;;;18.17;;
47365;SDS011;33105;47.964;7.982;2022-08-19T00:53:53;22.60;;;18.38;;
47365;SDS011;33105;47.964;7.982;2022-08-19T00:56:59;24.63;;;19.13;;
47365;SDS011;33105;47.964;7.982;2022-08-19T01:00:05;22.77;;;18.02;;
47365;SDS011;33105;47.964;7.982;2022-08-19T01:03:20;24.35;;;19.02;;
47365;SDS011;33105;47.964;7.982;2022-08-19T01:06:27;22.50;;;19.13;;
47365;SDS011;33105;47.964;7.982;2022-08-19T01:09:29;23.08;;;19.70;;
47365;SDS011;33105;47.964;7.982;2022-08-19T01:12:39;24.77;;;20.45;;
47365;SDS011;33105;47.964;7.982;2022-08-19T01:15:45;27.98;;;21.25;;
47365;SDS011;33105;47.964;7.982;2022-08-19T01:18:51;25.85;;;19.80;;
47365;SDS011;33105;47.964;7.982;2022-08-19T01:21:57;23.65;;;19.90;;
47365;SDS011;33105;47.964;7.982;2022-08-19T01:25:12;27.13;;;20.35;;
47365;SDS011;33105;47.964;7.982;2022-08-19T01:28:20;21.83;;;19.05;;
47365;SDS011;33105;47.964;7.982;2022-08-19T01:31:34;31.10;;;21.05;;
47365;SDS011;33105;47.964;7.982;2022-08-19T01:34:35;24.02;;;18.40;;
47365;SDS011;33105;47.964;7.982;2022-08-19T01:38:17;30.50;;;22.40;;
47365;SDS011;33105;47.964;7.982;2022-08-19T01:41:33;28.70;;;20.98;;
47365;SDS011;33105;47.964;7.982;2022-08-19T01:44:35;25.27;;;20.67;;
47365;SDS011;33105;47.964;7.982;2022-08-19T01:47:37;29.98;;;22.00;;
47365;SDS011;33105;47.964;7.982;2022-08-19T01:50:39;31.02;;;21.63;;
47365;SDS011;33105;47.964;7.982;2022-08-19T01:53:41;32.28;;;22.17;;
47365;SDS011;33105;47.964;7.982;2022-08-19T01:56:51;27.40;;;21.40;;
47365;SDS011;33105;47.964;7.982;2022-08-19T01:59:55;27.85;;;20.92;;
47365;SDS011;33105;47.964;7.982;2022-08-19T02:02:57;31.80;;;21.35;;
47365;SDS011;33105;47.964;7.982;2022-08-19T02:06:02;46.75;;;26.02;;
47365;SDS011;33105;47.964;7.982;2022-08-19T02:09:06;23.95;;;20.17;;
47365;SDS011;33105;47.964;7.982;2022-08-19T02:12:17;30.02;;;22.30;;
47365;SDS011;33105;47.964;7.982;2022-08-19T02:15:19;25.42;;;20.88;;
47365;SDS011;33105;47.964;7.982;2022-08-19T02:18:21;31.85;;;22.25;;
47365;SDS011;33105;47.964;7.982;2022-08-19T02:21:54;30.98;;;21.77;;
47365;SDS011;33105;47.964;7.982;2022-08-19T02:24:55;24.38;;;21.05;;
47365;SDS011;33105;47.964;7.982;2022-08-19T02:27:57;29.95;;;23.45;;
47365;SDS011;33105;47.964;7.982;2022-08-19T02:30:58;29.73;;;22.73;;
47365;SDS011;33105;47.964;7.982;2022-08-19T02:34:01;26.48;;;21.75;;
47365;SDS011;33105;47.964;7.982;2022-08-19T02:37:03;24.73;;;20.90;;
47365;SDS011;33105;47.964;7.982;2022-08-19T02:40:04;29.33;;;22.40;;
47365;SDS011;33105;47.964;7.982;2022-08-19T02:43:07;26.92;;;22.95;;
47365;SDS011;33105;47.964;7.982;2022-08-19T02:49:46;27.10;;;21.70;;
47365;SDS011;33105;47.964;7.982;2022-08-19T02:52:50;27.50;;;22.45;;
47365;SDS011;33105;47.964;7.982;2022-08-19T02:56:00;25.23;;;20.63;;
47365;SDS011;33105;47.964;7.982;2022-08-19T02:59:09;27.63;;;21.02;;
47365;SDS011;33105;47.964;7.982;2022-08-19T03:02:12;23.63;;;20.50;;
47365;SDS011;33105;47.964;7.982;2022-08-19T03:08:57;35.05;;;24.30;;
47365;SDS011;33105;47.964;7.982;2022-08-19T03:11:59;27.02;;;22.13;;
47365;SDS011;33105;47.964;7.982;2022-08-19T03:15:00;30.23;;;21.52;;
47365;SDS011;33105;47.964;7.982;2022-08-19T03:18:02;27.42;;;23.05;;
47365;SDS011;33105;47.964;7.982;2022-08-19T03:21:17;31.95;;;23.65;;
47365;SDS011;33105;47.964;7.982;2022-08-19T03:24:24;27.77;;;22.92;;
47365;SDS011;33105;47.964;7.982;2022-08-19T03:27:25;29.67;;;21.90;;
47365;SDS011;33105;47.964;7.982;2022-08-19T03:30:27;29.65;;;23.75;;
47365;SDS011;33105;47.964;7.982;2022-08-19T03:33:35;31.00;;;23.33;;
47365;SDS011;33105;47.964;7.982;2022-08-19T03:36:39;29.77;;;22.63;;
47365;SDS011;33105;47.964;7.982;2022-08-19T03:40:05;29.17;;;22.08;;
47365;SDS011;33105;47.964;7.982;2022-08-19T03:43:17;27.58;;;21.50;;
47365;SDS011;33105;47.964;7.982;2022-08-19T03:46:20;26.73;;;21.15;;
47365;SDS011;33105;47.964;7.982;2022-08-19T03:49:27;27.75;;;20.35;;
47365;SDS011;33105;47.964;7.982;2022-08-19T03:52:34;23.45;;;20.77;;
47365;SDS011;33105;47.964;7.982;2022-08-19T03:55:40;25.45;;;20.67;;
47365;SDS011;33105;47.964;7.982;2022-08-19T03:58:42;23.98;;;20.88;;
47365;SDS011;33105;47.964;7.982;2022-08-19T04:01:47;23.70;;;20.27;;
47365;SDS011;33105;47.964;7.982;2022-08-19T04:04:48;26.52;;;21.48;;
47365;SDS011;33105;47.964;7.982;2022-08-19T04:07:59;20.30;;;18.10;;
47365;SDS011;33105;47.964;7.982;2022-08-19T04:11:05;24.65;;;20.85;;
47365;SDS011;33105;47.964;7.982;2022-08-19T04:14:09;27.25;;;22.27;;
47365;SDS011;33105;47.964;7.982;2022-08-19T04:17:13;29.27;;;22.95;;
47365;SDS011;33105;47.964;7.982;2022-08-19T04:20:15;26.65;;;21.90;;
47365;SDS011;33105;47.964;7.982;2022-08-19T04:23:16;26.70;;;22.15;;
47365;SDS011;33105;47.964;7.982;2022-08-19T04:26:24;32.45;;;21.75;;
47365;SDS011;33105;47.964;7.982;2022-08-19T04:29:33;30.38;;;21.05;;
47365;SDS011;33105;47.964;7.982;2022-08-19T04:32:35;26.77;;;21.48;;
47365;SDS011;33105;47.964;7.982;2022-08-19T04:35:44;25.63;;;20.85;;
47365;SDS011;33105;47.964;7.982;2022-08-19T04:38:48;25.17;;;22.02;;
47365;SDS011;33105;47.964;7.982;2022-08-19T04:41:51;22.75;;;19.83;;
47365;SDS011;33105;47.964;7.982;2022-08-19T04:45:12;24.17;;;20.50;;
47365;SDS011;33105;47.964;7.982;2022-08-19T04:48:24;20.60;;;18.45;;
47365;SDS011;33105;47.964;7.982;2022-08-19T04:51:34;26.15;;;22.23;;
47365;SDS011;33105;47.964;7.982;2022-08-19T04:54:36;24.55;;;21.95;;
47365;SDS011;33105;47.964;7.982;2022-08-19T04:57:37;32.38;;;23.67;;
47365;SDS011;33105;47.964;7.982;2022-08-19T05:00:42;27.30;;;21.83;;
47365;SDS011;33105;47.964;7.982;2022-08-19T05:03:47;30.02;;;22.65;;
47365;SDS011;33105;47.964;7.982;2022-08-19T05:06:52;28.27;;;21.83;;
47365;SDS011;33105;47.964;7.982;2022-08-19T05:09:54;27.02;;;22.63;;
47365;SDS011;33105;47.964;7.982;2022-08-19T05:12:56;29.17;;;21.55;;
47365;SDS011;33105;47.964;7.982;2022-08-19T05:16:00;23.73;;;21.33;;
47365;SDS011;33105;47.964;7.982;2022-08-19T05:19:01;24.25;;;21.30;;
47365;SDS011;33105;47.964;7.982;2022-08-19T05:22:21;26.08;;;23.23;;
47365;SDS011;33105;47.964;7.982;2022-08-19T05:26:11;28.95;;;21.98;;
47365;SDS011;33105;47.964;7.982;2022-08-19T05:29:18;25.33;;;20.65;;
47365;SDS011;33105;47.964;7.982;2022-08-19T05:32:30;24.85;;;22.15;;
47365;SDS011;33105;47.964;7.982;2022-08-19T05:35:32;25.40;;;22.13;;
47365;SDS011;33105;47.964;7.982;2022-08-19T05:38:33;27.42;;;22.20;;
47365;SDS011;33105;47.964;7.982;2022-08-19T05:41:37;28.73;;;23.02;;
47365;SDS011;33105;47.964;7.982;2022-08-19T05:44:45;28.70;;;23.60;;
47365;SDS011;33105;47.964;7.982;2022-08-19T05:47:47;26.98;;;23.02;;
47365;SDS011;33105;47.964;7.982;2022-08-19T05:50:49;31.08;;;24.42;;
47365;SDS011;33105;47.964;7.982;2022-08-19T05:53:55;31.58;;;26.42;;
47365;SDS011;33105;47.964;7.982;2022-08-19T05:56:59;29.40;;;24.52;;
47365;SDS011;33105;47.964;7.982;2022-08-19T06:00:02;27.25;;;22.10;;
47365;SDS011;33105;47.964;7.982;2022-08-19T06:03:12;29.17;;;23.63;;
47365;SDS011;33105;47.964;7.982;2022-08-19T06:06:23;29.10;;;24.88;;
47365;SDS011;33105;47.964;7.982;2022-08-19T06:09:24;29.13;;;22.65;;
47365;SDS011;33105;47.964;7.982;2022-08-19T06:12:26;27.77;;;24.77;;
47365;SDS011;33105;47.964;7.982;2022-08-19T06:15:36;27.45;;;24.40;;
47365;SDS011;33105;47.964;7.982;2022-08-19T06:18:38;25.75;;;21.55;;
47365;SDS011;33105;47.964;7.982;2022-08-19T06:21:40;28.95;;;23.15;;
47365;SDS011;33105;47.964;7.982;2022-08-19T06:24:44;28.70;;;24.15;;
47365;SDS011;33105;47.964;7.982;2022-08-19T06:27:46;28.63;;;23.63;;
47365;SDS011;33105;47.964;7.982;2022-08-19T06:30:47;26.92;;;23.23;;
47365;SDS011;33105;47.964;7.982;2022-08-19T06:33:49;25.38;;;22.63;;
47365;SDS011;33105;47.964;7.982;2022-08-19T06:36:51;29.88;;;23.30;;
47365;SDS011;33105;47.964;7.982;2022-08-19T06:39:53;25.75;;;21.05;;
47365;SDS011;33105;47.964;7.982;2022-08-19T06:42:57;23.65;;;21.08;;
47365;SDS011;33105;47.964;7.982;2022-08-19T06:46:02;29.88;;;22.38;;
47365;SDS011;33105;47.964;7.982;2022-08-19T06:49:13;28.40;;;24.25;;
47365;SDS011;33105;47.964;7.982;2022-08-19T06:52:24;26.70;;;23.65;;
47365;SDS011;33105;47.964;7.982;2022-08-19T06:55:35;28.23;;;23.90;;
47365;SDS011;33105;47.964;7.982;2022-08-19T06:58:38;28.83;;;23.23;;
47365;SDS011;33105;47.964;7.982;2022-08-19T07:01:41;27.17;;;22.02;;
47365;SDS011;33105;47.964;7.982;2022-08-19T07:04:46;28.15;;;24.88;;
47365;SDS011;33105;47.964;7.982;2022-08-19T07:07:47;34.58;;;26.88;;
47365;SDS011;33105;47.964;7.982;2022-08-19T07:10:49;30.40;;;25.98;;
47365;SDS011;33105;47.964;7.982;2022-08-19T07:13:50;31.50;;;27.25;;
47365;SDS011;33105;47.964;7.982;2022-08-19T07:16:52;31.10;;;26.27;;
47365;SDS011;33105;47.964;7.982;2022-08-19T07:19:55;31.05;;;26.95;;
47365;SDS011;33105;47.964;7.982;2022-08-19T07:22:57;39.38;;;29.60;;
47365;SDS011;33105;47.964;7.982;2022-08-19T07:25:58;34.25;;;27.40;;
47365;SDS011;33105;47.964;7.982;2022-08-19T07:29:06;32.63;;;26.70;;
47365;SDS011;33105;47.964;7.982;2022-08-19T07:32:08;36.80;;;29.65;;
47365;SDS011;33105;47.964;7.982;2022-08-19T07:35:09;33.13;;;28.30;;
47365;SDS011;33105;47.964;7.982;2022-08-19T07:38:11;35.80;;;28.40;;
47365;SDS011;33105;47.964;7.982;2022-08-19T07:41:24;37.38;;;30.30;;
47365;SDS011;33105;47.964;7.982;2022-08-19T07:44:29;42.28;;;31.17;;
47365;SDS011;33105;47.964;7.982;2022-08-19T07:47:30;39.63;;;31.42;;
47365;SDS011;33105;47.964;7.982;2022-08-19T07:50:31;44.20;;;30.95;;
47365;SDS011;33105;47.964;7.982;2022-08-19T07:53:33;45.03;;;34.28;;
47365;SDS011;33105;47.964;7.982;2022-08-19T07:56:36;49.30;;;36.55;;
47365;SDS011;33105;47.964;7.982;2022-08-19T07:59:38;56.80;;;36.97;;
47365;SDS011;33105;47.964;7.982;2022-08-19T08:02:40;49.20;;;36.55;;
47365;SDS011;33105;47.964;7.982;2022-08-19T08:05:43;56.97;;;38.97;;
47365;SDS011;33105;47.964;7.982;2022-08-19T08:09:04;54.45;;;39.92;;
47365;SDS011;33105;47.964;7.982;2022-08-19T08:12:17;47.63;;;37.13;;
47365;SDS011;33105;47.964;7.982;2022-08-19T08:15:26;54.63;;;38.95;;
47365;SDS011;33105;47.964;7.982;2022-08-19T08:18:27;52.47;;;40.60;;
47365;SDS011;33105;47.964;7.982;2022-08-19T08:21:29;59.67;;;41.60;;
47365;SDS011;33105;47.964;7.982;2022-08-19T08:24:30;45.80;;;36.55;;
47365;SDS011;33105;47.964;7.982;2022-08-19T08:27:35;46.67;;;37.00;;
47365;SDS011;33105;47.964;7.982;2022-08-19T08:30:37;50.67;;;38.35;;
47365;SDS011;33105;47.964;7.982;2022-08-19T08:33:42;50.65;;;39.08;;
47365;SDS011;33105;47.964;7.982;2022-08-19T08:36:44;48.95;;;38.97;;
47365;SDS011;33105;47.964;7.982;2022-08-19T08:39:46;46.78;;;38.17;;
47365;SDS011;33105;47.964;7.982;2022-08-19T08:42:57;56.03;;;40.83;;
47365;SDS011;33105;47.964;7.982;2022-08-19T08:46:08;54.15;;;41.25;;
47365;SDS011;33105;47.964;7.982;2022-08-19T08:49:35;52.22;;;40.20;;
47365;SDS011;33105;47.964;7.982;2022-08-19T08:52:49;48.63;;;38.42;;
47365;SDS011;33105;47.964;7.982;2022-08-19T08:55:52;52.00;;;39.53;;
47365;SDS011;33105;47.964;7.982;2022-08-19T08:58:56;46.28;;;37.20;;
47365;SDS011;33105;47.964;7.982;2022-08-19T09:02:00;45.65;;;37.42;;
47365;SDS011;33105;47.964;7.982;2022-08-19T09:05:01;52.20;;;39.80;;
47365;SDS011;33105;47.964;7.982;2022-08-19T09:08:06;54.30;;;39.75;;
47365;SDS011;33105;47.964;7.982;2022-08-19T09:11:15;45.95;;;36.30;;
47365;SDS011;33105;47.964;7.982;2022-08-19T09:17:43;47.67;;;36.40;;
47365;SDS011;33105;47.964;7.982;2022-08-19T09:20:45;44.25;;;36.85;;
47365;SDS011;33105;47.964;7.982;2022-08-19T09:23:49;44.70;;;37.30;;
47365;SDS011;33105;47.964;7.982;2022-08-19T09:26:51;47.70;;;38.72;;
47365;SDS011;33105;47.964;7.982;2022-08-19T09:29:53;44.42;;;36.42;;
47365;SDS011;33105;47.964;7.982;2022-08-19T09:32:54;41.28;;;35.13;;
47365;SDS011;33105;47.964;7.982;2022-08-19T09:36:08;42.75;;;34.42;;
47365;SDS011;33105;47.964;7.982;2022-08-19T09:39:11;45.10;;;36.38;;
47365;SDS011;33105;47.964;7.982;2022-08-19T09:42:12;47.22;;;36.88;;
47365;SDS011;33105;47.964;7.982;2022-08-19T09:45:15;43.50;;;36.80;;
47365;SDS011;33105;47.964;7.982;2022-08-19T09:48:21;45.67;;;36.25;;
47365;SDS011;33105;47.964;7.982;2022-08-19T09:51:23;44.13;;;35.83;;
47365;SDS011;33105;47.964;7.982;2022-08-19T09:54:27;48.65;;;38.95;;
47365;SDS011;33105;47.964;7.982;2022-08-19T09:57:29;41.85;;;34.60;;
47365;SDS011;33105;47.964;7.982;2022-08-19T10:00:32;46.13;;;35.90;;
47365;SDS011;33105;47.964;7.982;2022-08-19T10:03:35;43.88;;;35.25;;
47365;SDS011;33105;47.964;7.982;2022-08-19T10:06:37;43.58;;;35.03;;
47365;SDS011;33105;47.964;7.982;2022-08-19T10:09:40;44.13;;;34.88;;
47365;SDS011;33105;47.964;7.982;2022-08-19T10:12:41;40.10;;;35.20;;
47365;SDS011;33105;47.964;7.982;2022-08-19T10:15:48;46.85;;;35.05;;
47365;SDS011;33105;47.964;7.982;2022-08-19T10:18:54;40.97;;;33.67;;
47365;SDS011;33105;47.964;7.982;2022-08-19T10:21:55;38.72;;;33.38;;
47365;SDS011;33105;47.964;7.982;2022-08-19T10:24:56;45.53;;;35.75;;
47365;SDS011;33105;47.964;7.982;2022-08-19T10:27:58;45.08;;;35.25;;
47365;SDS011;33105;47.964;7.982;2022-08-19T10:31:03;44.78;;;36.97;;
47365;SDS011;33105;47.964;7.982;2022-08-19T10:34:08;48.95;;;37.70;;
47365;SDS011;33105;47.964;7.982;2022-08-19T10:37:10;43.17;;;34.45;;
47365;SDS011;33105;47.964;7.982;2022-08-19T10:40:11;42.08;;;36.25;;
47365;SDS011;33105;47.964;7.982;2022-08-19T10:43:12;44.40;;;38.00;;
47365;SDS011;33105;47.964;7.982;2022-08-19T10:46:14;45.08;;;37.55;;
47365;SDS011;33105;47.964;7.982;2022-08-19T10:49:16;43.97;;;36.72;;
47365;SDS011;33105;47.964;7.982;2022-08-19T10:52:17;46.60;;;38.33;;
47365;SDS011;33105;47.964;7.982;2022-08-19T10:55:34;48.38;;;38.83;;
47365;SDS011;33105;47.964;7.982;2022-08-19T10:58:54;47.92;;;38.28;;
47365;SDS011;33105;47.964;7.982;2022-08-19T11:02:00;54.00;;;41.47;;
47365;SDS011;33105;47.964;7.982;2022-08-19T11:05:02;49.58;;;39.50;;
47365;SDS011;33105;47.964;7.982;2022-08-19T11:08:04;46.53;;;36.95;;
47365;SDS011;33105;47.964;7.982;2022-08-19T11:11:06;44.72;;;37.42;;
47365;SDS011;33105;47.964;7.982;2022-08-19T11:14:09;43.72;;;37.20;;
47365;SDS011;33105;47.964;7.982;2022-08-19T11:17:11;47.63;;;36.97;;
47365;SDS011;33105;47.964;7.982;2022-08-19T11:20:14;40.03;;;34.03;;
47365;SDS011;33105;47.964;7.982;2022-08-19T11:23:16;43.13;;;35.40;;
47365;SDS011;33105;47.964;7.982;2022-08-19T11:26:18;47.17;;;36.97;;
47365;SDS011;33105;47.964;7.982;2022-08-19T11:29:20;39.85;;;35.50;;
47365;SDS011;33105;47.964;7.982;2022-08-19T11:32:22;43.38;;;35.55;;
47365;SDS011;33105;47.964;7.982;2022-08-19T11:35:23;40.70;;;36.00;;
47365;SDS011;33105;47.964;7.982;2022-08-19T11:38:25;40.22;;;32.83;;
47365;SDS011;33105;47.964;7.982;2022-08-19T11:41:26;33.53;;;27.85;;
47365;SDS011;33105;47.964;7.982;2022-08-19T11:44:28;35.72;;;31.80;;
47365;SDS011;33105;47.964;7.982;2022-08-19T11:47:31;36.47;;;31.05;;
47365;SDS011;33105;47.964;7.982;2022-08-19T11:50:32;38.22;;;33.97;;
47365;SDS011;33105;47.964;7.982;2022-08-19T11:53:33;40.13;;;34.60;;
47365;SDS011;33105;47.964;7.982;2022-08-19T11:56:36;39.72;;;34.13;;
47365;SDS011;33105;47.964;7.982;2022-08-19T11:59:38;42.15;;;36.50;;
47365;SDS011;33105;47.964;7.982;2022-08-19T12:02:39;40.97;;;35.92;;
47365;SDS011;33105;47.964;7.982;2022-08-19T12:05:41;42.33;;;36.10;;
47365;SDS011;33105;47.964;7.982;2022-08-19T12:08:43;41.53;;;35.88;;
47365;SDS011;33105;47.964;7.982;2022-08-19T12:11:44;37.97;;;33.30;;
47365;SDS011;33105;47.964;7.982;2022-08-19T12:14:46;46.20;;;39.08;;
47365;SDS011;33105;47.964;7.982;2022-08-19T12:17:48;46.75;;;39.20;;
47365;SDS011;33105;47.964;7.982;2022-08-19T12:20:50;49.65;;;40.97;;
47365;SDS011;33105;47.964;7.982;2022-08-19T12:23:52;51.90;;;39.90;;
47365;SDS011;33105;47.964;7.982;2022-08-19T12:26:53;45.03;;;37.53;;
47365;SDS011;33105;47.964;7.982;2022-08-19T12:29:57;50.47;;;38.03;;
47365;SDS011;33105;47.964;7.982;2022-08-19T12:32:59;47.38;;;36.50;;
47365;SDS011;33105;47.964;7.982;2022-08-19T12:36:04;37.85;;;31.33;;
47365;SDS011;33105;47.964;7.982;2022-08-19T12:39:08;44.10;;;35.40;;
47365;SDS011;33105;47.964;7.982;2022-08-19T12:42:10;40.38;;;32.35;;
47365;SDS011;33105;47.964;7.982;2022-08-19T12:45:12;31.40;;;27.83;;
47365;SDS011;33105;47.964;7.982;2022-08-19T12:48:14;35.97;;;29.85;;
47365;SDS011;33105;47.964;7.982;2022-08-19T12:51:16;38.05;;;33.20;;
47365;SDS011;33105;47.964;7.982;2022-08-19T12:54:20;33.72;;;27.75;;
47365;SDS011;33105;47.964;7.982;2022-08-19T12:57:25;36.28;;;31.08;;
47365;SDS011;33105;47.964;7.982;2022-08-19T13:00:28;34.58;;;28.35;;
47365;SDS011;33105;47.964;7.982;2022-08-19T13:03:30;29.90;;;25.20;;
47365;SDS011;33105;47.964;7.982;2022-08-19T13:06:31;34.28;;;26.17;;
47365;SDS011;33105;47.964;7.982;2022-08-19T13:09:33;32.33;;;23.23;;
47365;SDS011;33105;47.964;7.982;2022-08-19T13:12:34;25.83;;;22.63;;
47365;SDS011;33105;47.964;7.982;2022-08-19T13:15:36;25.58;;;22.98;;
47365;SDS011;33105;47.964;7.982;2022-08-19T13:18:41;25.63;;;20.95;;
47365;SDS011;33105;47.964;7.982;2022-08-19T13:21:43;22.83;;;20.35;;
47365;SDS011;33105;47.964;7.982;2022-08-19T13:24:44;22.08;;;19.83;;
47365;SDS011;33105;47.964;7.982;2022-08-19T13:27:47;25.90;;;20.08;;
47365;SDS011;33105;47.964;7.982;2022-08-19T13:30:49;22.17;;;19.50;;
47365;SDS011;33105;47.964;7.982;2022-08-19T13:34:08;21.58;;;19.27;;
47365;SDS011;33105;47.964;7.982;2022-08-19T13:37:10;25.75;;;19.60;;
47365;SDS011;33105;47.964;7.982;2022-08-19T13:40:16;19.67;;;17.67;;
47365;SDS011;33105;47.964;7.982;2022-08-19T13:43:25;21.40;;;16.63;;
47365;SDS011;33105;47.964;7.982;2022-08-19T13:46:27;21.33;;;18.42;;
47365;SDS011;33105;47.964;7.982;2022-08-19T13:49:29;20.33;;;18.35;;
47365;SDS011;33105;47.964;7.982;2022-08-19T13:52:31;20.27;;;18.08;;
47365;SDS011;33105;47.964;7.982;2022-08-19T13:55:33;24.42;;;18.02;;
47365;SDS011;33105;47.964;7.982;2022-08-19T13:58:34;18.58;;;16.60;;
47365;SDS011;33105;47.964;7.982;2022-08-19T14:01:36;17.17;;;15.48;;
47365;SDS011;33105;47.964;7.982;2022-08-19T14:04:37;21.67;;;15.30;;
47365;SDS011;33105;47.964;7.982;2022-08-19T14:07:39;15.73;;;13.35;;
47365;SDS011;33105;47.964;7.982;2022-08-19T14:10:40;19.15;;;13.55;;
47365;SDS011;33105;47.964;7.982;2022-08-19T14:13:44;16.73;;;14.10;;
47365;SDS011;33105;47.964;7.982;2022-08-19T14:16:46;14.90;;;13.40;;
47365;SDS011;33105;47.964;7.982;2022-08-19T14:19:47;17.25;;;12.88;;
47365;SDS011;33105;47.964;7.982;2022-08-19T14:22:48;13.13;;;11.73;;
47365;SDS011;33105;47.964;7.982;2022-08-19T14:25:50;14.82;;;13.05;;
47365;SDS011;33105;47.964;7.982;2022-08-19T14:28:51;14.30;;;12.93;;
47365;SDS011;33105;47.964;7.982;2022-08-19T14:31:53;13.30;;;11.82;;
47365;SDS011;33105;47.964;7.982;2022-08-19T14:34:54;14.55;;;12.43;;
47365;SDS011;33105;47.964;7.982;2022-08-19T14:37:55;21.08;;;13.02;;
47365;SDS011;33105;47.964;7.982;2022-08-19T14:44:20;13.27;;;10.85;;
47365;SDS011;33105;47.964;7.982;2022-08-19T14:47:21;11.63;;;10.43;;
47365;SDS011;33105;47.964;7.982;2022-08-19T14:50:22;12.75;;;11.52;;
47365;SDS011;33105;47.964;7.982;2022-08-19T14:53:23;13.55;;;11.15;;
47365;SDS011;33105;47.964;7.982;2022-08-19T14:56:25;15.63;;;12.38;;
47365;SDS011;33105;47.964;7.982;2022-08-19T14:59:28;13.38;;;11.00;;
47365;SDS011;33105;47.964;7.982;2022-08-19T15:02:29;12.00;;;10.90;;
47365;SDS011;33105;47.964;7.982;2022-08-19T15:05:30;12.35;;;11.07;;
47365;SDS011;33105;47.964;7.982;2022-08-19T15:08:33;13.63;;;12.15;;
47365;SDS011;33105;47.964;7.982;2022-08-19T15:11:36;14.55;;;11.63;;
47365;SDS011;33105;47.964;7.982;2022-08-19T15:14:39;13.32;;;10.30;;
47365;SDS011;33105;47.964;7.982;2022-08-19T15:17:43;12.20;;;10.23;;
47365;SDS011;33105;47.964;7.982;2022-08-19T15:20:45;11.68;;;10.57;;
47365;SDS011;33105;47.964;7.982;2022-08-19T15:23:48;11.32;;;9.60;;
47365;SDS011;33105;47.964;7.982;2022-08-19T15:26:51;12.82;;;10.07;;
47365;SDS011;33105;47.964;7.982;2022-08-19T15:29:54;12.30;;;9.70;;
47365;SDS011;33105;47.964;7.982;2022-08-19T15:32:55;10.85;;;9.75;;
47365;SDS011;33105;47.964;7.982;2022-08-19T15:35:58;16.15;;;10.25;;
47365;SDS011;33105;47.964;7.982;2022-08-19T15:39:00;12.80;;;9.50;;
47365;SDS011;33105;47.964;7.982;2022-08-19T15:42:01;10.35;;;9.30;;
47365;SDS011;33105;47.964;7.982;2022-08-19T15:45:04;10.65;;;8.98;;
47365;SDS011;33105;47.964;7.982;2022-08-19T15:48:07;9.18;;;8.32;;
47365;SDS011;33105;47.964;7.982;2022-08-19T15:51:08;11.70;;;9.15;;
47365;SDS011;33105;47.964;7.982;2022-08-19T15:54:11;9.85;;;8.68;;
47365;SDS011;33105;47.964;7.982;2022-08-19T15:57:14;10.98;;;9.32;;
47365;SDS011;33105;47.964;7.982;2022-08-19T16:00:27;9.50;;;8.60;;
47365;SDS011;33105;47.964;7.982;2022-08-19T16:03:47;10.27;;;9.07;;
47365;SDS011;33105;47.964;7.982;2022-08-19T16:07:08;12.10;;;9.43;;
47365;SDS011;33105;47.964;7.982;2022-08-19T16:10:10;10.20;;;9.05;;
47365;SDS011;33105;47.964;7.982;2022-08-19T16:13:11;13.98;;;9.15;;
47365;SDS011;33105;47.964;7.982;2022-08-19T16:16:12;12.80;;;11.35;;
47365;SDS011;33105;47.964;7.982;2022-08-19T16:19:15;14.25;;;11.18;;
47365;SDS011;33105;47.964;7.982;2022-08-19T16:22:17;12.90;;;11.70;;
47365;SDS011;33105;47.964;7.982;2022-08-19T16:25:19;12.73;;;11.63;;
47365;SDS011;33105;47.964;7.982;2022-08-19T16:28:22;15.10;;;12.82;;
47365;SDS011;33105;47.964;7.982;2022-08-19T16:31:23;15.52;;;12.57;;
47365;SDS011;33105;47.964;7.982;2022-08-19T16:34:25;12.75;;;11.55;;
47365;SDS011;33105;47.964;7.982;2022-08-19T16:37:27;12.35;;;11.07;;
47365;SDS011;33105;47.964;7.982;2022-08-19T16:40:28;13.73;;;11.45;;
47365;SDS011;33105;47.964;7.982;2022-08-19T16:43:29;13.00;;;11.07;;
47365;SDS011;33105;47.964;7.982;2022-08-19T16:46:31;13.77;;;11.88;;
47365;SDS011;33105;47.964;7.982;2022-08-19T16:49:32;12.13;;;10.93;;
47365;SDS011;33105;47.964;7.982;2022-08-19T16:52:34;15.13;;;13.38;;
47365;SDS011;33105;47.964;7.982;2022-08-19T16:55:36;12.75;;;11.43;;
47365;SDS011;33105;47.964;7.982;2022-08-19T16:58:37;10.90;;;9.80;;
47365;SDS011;33105;47.964;7.982;2022-08-19T17:01:39;13.55;;;12.15;;
47365;SDS011;33105;47.964;7.982;2022-08-19T17:04:41;16.75;;;14.90;;
47365;SDS011;33105;47.964;7.982;2022-08-19T17:07:43;15.68;;;12.38;;
47365;SDS011;33105;47.964;7.982;2022-08-19T17:10:44;15.07;;;13.55;;
47365;SDS011;33105;47.964;7.982;2022-08-19T17:13:47;14.40;;;11.77;;
47365;SDS011;33105;47.964;7.982;2022-08-19T17:16:50;15.52;;;13.10;;
47365;SDS011;33105;47.964;7.982;2022-08-19T17:19:51;13.00;;;11.75;;
47365;SDS011;33105;47.964;7.982;2022-08-19T17:22:53;11.90;;;10.63;;
47365;SDS011;33105;47.964;7.982;2022-08-19T17:25:56;11.52;;;10.35;;
47365;SDS011;33105;47.964;7.982;2022-08-19T17:28:58;16.13;;;11.93;;
47365;SDS011;33105;47.964;7.982;2022-08-19T17:31:59;11.20;;;10.00;;
47365;SDS011;33105;47.964;7.982;2022-08-19T17:35:01;13.40;;;11.18;;
47365;SDS011;33105;47.964;7.982;2022-08-19T17:38:05;11.40;;;10.13;;
47365;SDS011;33105;47.964;7.982;2022-08-19T17:41:07;10.93;;;9.82;;
47365;SDS011;33105;47.964;7.982;2022-08-19T17:44:09;13.88;;;9.60;;
47365;SDS011;33105;47.964;7.982;2022-08-19T17:47:10;11.60;;;9.52;;
47365;SDS011;33105;47.964;7.982;2022-08-19T17:50:12;13.63;;;10.48;;
47365;SDS011;33105;47.964;7.982;2022-08-19T17:53:13;11.07;;;9.98;;
47365;SDS011;33105;47.964;7.982;2022-08-19T17:56:15;11.13;;;10.02;;
47365;SDS011;33105;47.964;7.982;2022-08-19T17:59:16;11.20;;;10.10;;
47365;SDS011;33105;47.964;7.982;2022-08-19T18:02:18;11.55;;;10.40;;
47365;SDS011;33105;47.964;7.982;2022-08-19T18:05:20;11.35;;;10.02;;
47365;SDS011;33105;47.964;7.982;2022-08-19T18:08:25;11.85;;;9.65;;
47365;SDS011;33105;47.964;7.982;2022-08-19T18:11:26;14.13;;;10.82;;
47365;SDS011;33105;47.964;7.982;2022-08-19T18:14:30;11.65;;;10.45;;